createdAt,value
2018-11-05T00:01:07.088Z,89.00
2018-11-05T00:03:38.011Z,90.00
2018-11-05T00:06:08.908Z,89.10
2018-11-05T00:08:39.846Z,89.50
2018-11-05T00:11:10.975Z,89.80
2018-11-05T00:13:42.041Z,89.60
2018-11-05T00:16:12.937Z,89.30
2018-11-05T00:18:44.158Z,89.80
2018-11-05T00:21:14.998Z,90.00
2018-11-05T00:23:45.858Z,90.30
2018-11-05T00:26:16.819Z,90.00
2018-11-05T00:28:47.799Z,90.00
2018-11-05T00:31:18.651Z,89.50
2018-11-05T00:33:49.525Z,89.70
2018-11-05T00:36:20.462Z,89.60
2018-11-05T00:38:51.473Z,90.00
2018-11-05T00:41:22.386Z,90.20
2018-11-05T00:43:53.107Z,90.20
2018-11-05T00:46:23.886Z,89.60
2018-11-05T00:48:54.652Z,88.90
2018-11-05T00:51:25.432Z,88.40
2018-11-05T00:53:56.386Z,87.50
2018-11-05T00:56:27.127Z,88.40
2018-11-05T00:58:58.042Z,89.00
2018-11-05T01:01:29.195Z,89.90
2018-11-05T01:04:00.029Z,90.10
2018-11-05T01:06:30.818Z,89.90
2018-11-05T01:09:01.636Z,89.60
2018-11-05T01:11:32.465Z,89.80
2018-11-05T01:14:03.392Z,90.00
2018-11-05T01:16:34.128Z,90.10
2018-11-05T01:19:05.559Z,90.30
2018-11-05T01:21:36.441Z,90.40
2018-11-05T01:24:07.240Z,90.30
2018-11-05T01:26:38.110Z,90.40
2018-11-05T01:29:08.999Z,90.50
2018-11-05T01:31:39.878Z,90.50
2018-11-05T01:34:10.674Z,90.40
2018-11-05T01:36:41.582Z,89.90
2018-11-05T01:39:12.502Z,90.10
2018-11-05T01:41:43.341Z,90.10
2018-11-05T01:44:14.118Z,89.90
2018-11-05T01:46:45.353Z,89.80
2018-11-05T01:49:16.174Z,90.20
2018-11-05T01:51:47.066Z,90.20
2018-11-05T01:54:17.855Z,90.30
2018-11-05T01:56:48.841Z,90.20
2018-11-05T01:59:19.860Z,90.30
2018-11-05T02:01:50.697Z,90.00
2018-11-05T02:04:21.794Z,90.30
2018-11-05T02:06:52.624Z,90.50
2018-11-05T02:09:23.424Z,90.20
2018-11-05T02:11:55.110Z,90.30
2018-11-05T02:14:25.863Z,90.20
2018-11-05T02:16:56.570Z,90.20
2018-11-05T02:19:27.736Z,90.40
2018-11-05T02:21:58.486Z,90.40
2018-11-05T02:24:29.332Z,90.30
2018-11-05T02:27:00.198Z,90.10
2018-11-05T02:29:30.969Z,90.00
2018-11-05T02:32:01.769Z,89.60
2018-11-05T02:34:32.733Z,89.40
2018-11-05T02:37:03.795Z,90.00
2018-11-05T02:39:34.849Z,90.10
2018-11-05T02:42:06.117Z,90.20
2018-11-05T02:44:37.114Z,90.70
2018-11-05T02:47:08.117Z,91.10
2018-11-05T02:49:39.028Z,91.10
2018-11-05T02:52:09.934Z,91.20
2018-11-05T02:54:40.869Z,91.30
2018-11-05T02:57:12.098Z,90.70
2018-11-05T02:59:42.935Z,90.90
2018-11-05T03:02:13.882Z,91.00
2018-11-05T03:04:44.731Z,91.10
2018-11-05T03:07:15.450Z,90.90
2018-11-05T03:09:46.241Z,90.40
2018-11-05T03:12:17.321Z,90.60
2018-11-05T03:14:47.998Z,91.30
2018-11-05T03:17:18.770Z,91.10
2018-11-05T03:19:49.482Z,91.30
2018-11-05T03:22:20.305Z,91.60
2018-11-05T03:24:51.007Z,90.90
2018-11-05T03:27:21.768Z,90.70
2018-11-05T03:29:53.490Z,91.20
2018-11-05T03:32:24.194Z,90.50
2018-11-05T03:34:54.980Z,90.50
2018-11-05T03:37:25.755Z,90.70
2018-11-05T03:39:56.577Z,90.20
2018-11-05T03:42:27.418Z,90.40
2018-11-05T03:44:58.227Z,90.70
2018-11-05T03:47:29.045Z,90.90
2018-11-05T03:49:59.823Z,90.90
2018-11-05T03:52:30.710Z,91.30
2018-11-05T03:55:01.545Z,91.90
2018-11-05T03:57:32.379Z,92.10
2018-11-05T04:00:03.175Z,91.50
2018-11-05T04:02:33.906Z,91.60
2018-11-05T04:05:04.968Z,91.80
2018-11-05T04:07:35.923Z,91.90
2018-11-05T04:10:07.892Z,92.00
2018-11-05T04:12:39.341Z,92.40
2018-11-05T04:15:11.481Z,92.30
2018-11-05T04:17:42.399Z,92.00
2018-11-05T04:20:14.714Z,91.80
2018-11-05T04:22:45.945Z,91.70
2018-11-05T04:25:17.306Z,91.90
2018-11-05T04:27:48.227Z,92.20
2018-11-05T04:30:19.109Z,92.30
2018-11-05T04:32:50.001Z,92.30
2018-11-05T04:35:20.985Z,91.70
2018-11-05T04:37:51.859Z,92.10
2018-11-05T04:40:22.818Z,92.00
2018-11-05T04:42:53.893Z,91.90
2018-11-05T04:45:24.861Z,92.10
2018-11-05T04:47:56.073Z,92.10
2018-11-05T04:50:27.138Z,91.70
2018-11-05T04:52:58.236Z,91.60
2018-11-05T04:55:29.240Z,91.70
2018-11-05T04:58:00.164Z,91.70
2018-11-05T05:00:31.082Z,91.90
2018-11-05T05:03:02.016Z,91.70
2018-11-05T05:05:32.765Z,91.40
2018-11-05T05:08:03.547Z,91.40
2018-11-05T05:10:34.474Z,91.40
2018-11-05T05:13:05.521Z,91.30
2018-11-05T05:15:36.863Z,91.20
2018-11-05T05:18:07.899Z,91.30
2018-11-05T05:20:38.878Z,91.90
2018-11-05T05:23:09.889Z,91.40
2018-11-05T05:25:40.923Z,91.80
2018-11-05T05:28:11.765Z,91.90
2018-11-05T05:30:42.946Z,91.80
2018-11-05T05:33:13.872Z,91.30
2018-11-05T05:35:44.714Z,90.70
2018-11-05T05:38:15.742Z,90.30
2018-11-05T05:40:46.681Z,90.00
2018-11-05T05:43:17.834Z,90.10
2018-11-05T05:45:48.840Z,89.30
2018-11-05T05:48:19.927Z,89.10
2018-11-05T05:50:50.758Z,89.30
2018-11-05T05:53:21.764Z,88.80
2018-11-05T05:55:52.796Z,88.00
2018-11-05T05:58:23.701Z,88.40
2018-11-05T06:00:54.734Z,87.80
2018-11-05T06:03:25.693Z,87.60
2018-11-05T06:05:56.930Z,87.60
2018-11-05T06:08:27.952Z,87.80
2018-11-05T06:10:58.981Z,87.70
2018-11-05T06:13:29.772Z,87.40
2018-11-05T06:16:01.140Z,87.40
2018-11-05T06:18:32.094Z,86.60
2018-11-05T06:21:03.115Z,85.10
2018-11-05T06:23:33.961Z,84.20
2018-11-05T06:26:05.267Z,83.80
2018-11-05T06:28:36.311Z,83.10
2018-11-05T06:31:07.443Z,83.40
2018-11-05T06:33:38.488Z,83.50
2018-11-05T06:36:09.595Z,82.30
2018-11-05T06:38:40.694Z,81.60
2018-11-05T06:41:11.919Z,81.30
2018-11-05T06:43:42.914Z,81.50
2018-11-05T06:46:14.088Z,80.90
2018-11-05T06:48:45.243Z,80.00
2018-11-05T06:51:16.227Z,78.90
2018-11-05T06:53:47.428Z,79.10
2018-11-05T06:56:18.330Z,78.40
2018-11-05T06:58:49.367Z,77.60
2018-11-05T07:01:20.325Z,77.80
2018-11-05T07:03:51.669Z,77.70
2018-11-05T07:06:22.576Z,77.50
2018-11-05T07:08:53.408Z,76.40
2018-11-05T07:11:24.384Z,75.10
2018-11-05T07:13:55.359Z,74.70
2018-11-05T07:16:26.443Z,73.60
2018-11-05T07:18:57.668Z,72.30
2018-11-05T07:21:28.552Z,71.00
2018-11-05T07:23:59.669Z,70.20
2018-11-05T07:26:31.067Z,69.30
2018-11-05T07:29:02.295Z,68.50
2018-11-05T07:31:34.045Z,68.50
2018-11-05T07:34:05.463Z,67.50
2018-11-05T07:36:36.392Z,66.50
2018-11-05T07:39:11.715Z,65.30
2018-11-05T07:41:43.402Z,64.70
2018-11-05T07:44:14.423Z,63.00
2018-11-05T07:46:45.504Z,63.10
2018-11-05T07:49:16.656Z,64.60
2018-11-05T07:51:47.782Z,62.80
2018-11-05T07:54:18.701Z,61.60
2018-11-05T07:56:49.998Z,62.10
2018-11-05T07:59:20.908Z,62.40
2018-11-05T08:01:51.874Z,62.80
2018-11-05T08:04:22.857Z,62.90
2018-11-05T08:06:54.041Z,62.40
2018-11-05T08:09:25.086Z,62.20
2018-11-05T08:11:56.147Z,63.40
2018-11-05T08:14:27.183Z,62.60
2018-11-05T08:16:58.352Z,63.10
2018-11-05T08:19:29.421Z,63.00
2018-11-05T08:22:00.403Z,62.80
2018-11-05T08:24:31.474Z,61.50
2018-11-05T08:27:02.575Z,62.20
2018-11-05T08:29:33.514Z,62.40
2018-11-05T08:32:04.698Z,62.60
2018-11-05T08:34:35.757Z,63.00
2018-11-05T08:37:06.724Z,63.10
2018-11-05T08:39:37.792Z,63.30
2018-11-05T08:42:09.060Z,63.80
2018-11-05T08:44:40.083Z,63.90
2018-11-05T08:47:11.053Z,64.30
2018-11-05T08:49:42.083Z,63.30
2018-11-05T08:52:13.128Z,63.00
2018-11-05T08:54:44.110Z,62.50
2018-11-05T08:57:15.068Z,62.40
2018-11-05T08:59:46.081Z,61.40
2018-11-05T09:02:17.457Z,61.50
2018-11-05T09:04:48.656Z,61.20
2018-11-05T09:07:20.122Z,60.00
2018-11-05T09:09:51.262Z,60.20
2018-11-05T09:12:22.186Z,60.70
2018-11-05T09:14:53.141Z,60.40
2018-11-05T09:17:24.070Z,59.90
2018-11-05T09:19:55.072Z,58.50
2018-11-05T09:22:25.991Z,58.80
2018-11-05T09:24:56.854Z,58.20
2018-11-05T09:27:28.276Z,58.20
2018-11-05T09:29:59.355Z,57.50
2018-11-05T09:32:30.247Z,57.70
2018-11-05T09:35:01.250Z,57.10
2018-11-05T09:37:32.326Z,56.80
2018-11-05T09:40:03.236Z,56.20
2018-11-05T09:42:34.744Z,55.80
2018-11-05T09:45:06.643Z,56.70
2018-11-05T09:47:37.761Z,56.40
2018-11-05T09:50:09.972Z,54.00
2018-11-05T09:52:41.092Z,54.50
2018-11-05T09:55:12.873Z,54.70
2018-11-05T09:57:43.706Z,54.60
2018-11-05T10:00:21.162Z,55.10
2018-11-05T10:03:00.559Z,52.20
2018-11-05T10:05:31.433Z,52.70
2018-11-05T10:08:02.462Z,52.90
2018-11-05T10:10:33.825Z,53.00
2018-11-05T10:13:04.788Z,53.70
2018-11-05T10:15:35.839Z,53.60
2018-11-05T10:18:07.256Z,55.20
2018-11-05T10:20:38.212Z,55.80
2018-11-05T10:23:09.209Z,55.90
2018-11-05T10:25:40.125Z,55.90
2018-11-05T10:28:10.942Z,54.10
2018-11-05T10:30:42.016Z,54.40
2018-11-05T10:33:12.986Z,55.10
2018-11-05T10:36:02.346Z,54.70
2018-11-05T10:38:33.443Z,55.20
2018-11-05T10:41:04.455Z,55.20
2018-11-05T10:43:35.537Z,55.20
2018-11-05T10:46:07.172Z,55.50
2018-11-05T10:48:38.136Z,55.80
2018-11-05T10:51:09.089Z,55.20
2018-11-05T10:53:40.087Z,55.40
2018-11-05T10:56:11.154Z,55.20
2018-11-05T10:58:42.397Z,54.70
2018-11-05T11:01:14.626Z,54.40
2018-11-05T11:03:50.517Z,54.00
2018-11-05T11:06:21.530Z,53.90
2018-11-05T11:08:52.344Z,53.70
2018-11-05T11:11:23.298Z,54.00
2018-11-05T11:13:54.326Z,53.90
2018-11-05T11:16:25.390Z,53.60
2018-11-05T11:18:56.245Z,54.20
2018-11-05T11:21:27.299Z,53.80
2018-11-05T11:23:58.361Z,52.80
2018-11-05T11:26:29.249Z,52.70
2018-11-05T11:29:00.278Z,52.70
2018-11-05T11:31:31.110Z,52.50
2018-11-05T11:34:02.074Z,52.40
2018-11-05T11:36:33.088Z,52.50
2018-11-05T11:39:04.270Z,53.10
2018-11-05T11:41:35.149Z,52.70
2018-11-05T11:44:06.955Z,52.60
2018-11-05T11:46:38.395Z,52.50
2018-11-05T11:49:10.267Z,52.90
2018-11-05T11:51:41.326Z,53.20
2018-11-05T11:54:12.622Z,51.50
2018-11-05T11:56:43.545Z,51.20
2018-11-05T11:59:14.661Z,51.60
2018-11-05T12:02:17.492Z,52.30
2018-11-05T12:04:48.401Z,52.20
2018-11-05T12:07:19.434Z,50.50
2018-11-05T12:09:56.842Z,51.80
2018-11-05T12:12:27.890Z,51.60
2018-11-05T12:14:59.029Z,51.50
2018-11-05T12:17:29.960Z,51.50
2018-11-05T12:20:00.884Z,51.30
2018-11-05T12:22:31.937Z,51.70
2018-11-05T12:25:03.096Z,51.00
2018-11-05T12:27:34.041Z,50.60
2018-11-05T12:30:05.921Z,50.30
2018-11-05T12:32:36.818Z,50.20
2018-11-05T12:35:09.759Z,50.40
2018-11-05T12:37:41.614Z,50.40
2018-11-05T12:40:14.865Z,50.50
2018-11-05T12:42:46.973Z,50.90
2018-11-05T12:45:18.050Z,50.70
2018-11-05T12:47:48.915Z,50.50
2018-11-05T12:50:21.664Z,49.60
2018-11-05T12:52:53.807Z,49.30
2018-11-05T12:55:24.785Z,50.00
2018-11-05T12:57:55.727Z,49.70
2018-11-05T13:00:26.877Z,49.50
2018-11-05T13:02:59.286Z,49.20
2018-11-05T13:05:31.514Z,49.50
2018-11-05T13:08:02.746Z,49.30
2018-11-05T13:10:33.635Z,49.00
2018-11-05T13:13:04.725Z,48.80
2018-11-05T13:15:35.661Z,49.00
2018-11-05T13:18:06.719Z,49.30
2018-11-05T13:20:37.719Z,49.30
2018-11-05T13:23:08.534Z,49.60
2018-11-05T13:25:39.550Z,49.30
2018-11-05T13:28:10.484Z,49.30
2018-11-05T13:30:41.383Z,49.50
2018-11-05T13:33:12.350Z,49.20
2018-11-05T13:35:43.393Z,48.30
2018-11-05T13:38:15.008Z,48.20
2018-11-05T13:40:45.458Z,47.70
2018-11-05T13:43:16.391Z,47.10
2018-11-05T13:45:47.587Z,47.50
2018-11-05T13:48:18.680Z,47.10
2018-11-05T13:50:49.306Z,47.00
2018-11-05T13:53:20.190Z,46.80
2018-11-05T13:55:51.395Z,46.80
2018-11-05T13:58:22.562Z,46.70
2018-11-05T14:00:53.543Z,46.20
2018-11-05T14:03:25.031Z,46.30
2018-11-05T14:05:56.018Z,46.20
2018-11-05T14:08:27.134Z,46.40
2018-11-05T14:10:58.110Z,46.20
2018-11-05T14:13:29.189Z,45.80
2018-11-05T14:16:00.320Z,46.30
2018-11-05T14:18:31.358Z,46.40
2018-11-05T14:21:02.363Z,46.60
2018-11-05T14:23:33.397Z,46.90
2018-11-05T14:26:04.662Z,46.90
2018-11-05T14:28:35.738Z,46.70
2018-11-05T14:31:06.905Z,46.90
2018-11-05T14:33:38.032Z,47.40
2018-11-05T14:36:09.098Z,47.70
2018-11-05T14:38:40.497Z,48.10
2018-11-05T14:41:11.631Z,48.40
2018-11-05T14:43:42.902Z,48.60
2018-11-05T14:46:14.032Z,49.10
2018-11-05T14:48:45.117Z,49.50
2018-11-05T14:51:16.336Z,49.80
2018-11-05T14:53:47.315Z,50.20
2018-11-05T14:56:18.455Z,50.30
2018-11-05T14:58:49.540Z,50.80
2018-11-05T15:01:20.687Z,51.20
2018-11-05T15:03:51.841Z,51.70
2018-11-05T15:06:23.207Z,52.40
2018-11-05T15:08:54.377Z,52.50
2018-11-05T15:11:25.497Z,52.60
2018-11-05T15:13:56.585Z,52.60
2018-11-05T15:16:27.925Z,52.70
2018-11-05T15:18:59.409Z,53.40
2018-11-05T15:21:30.186Z,53.20
2018-11-05T15:24:02.187Z,53.50
2018-11-05T15:26:33.248Z,54.30
2018-11-05T15:29:04.420Z,54.80
2018-11-05T15:31:35.631Z,55.40
2018-11-05T15:34:06.820Z,56.00
2018-11-05T15:36:37.851Z,56.50
2018-11-05T15:39:09.895Z,57.10
2018-11-05T15:41:41.177Z,57.60
2018-11-05T15:44:12.271Z,57.60
2018-11-05T15:46:43.462Z,58.20
2018-11-05T15:49:15.020Z,57.60
2018-11-05T15:51:46.623Z,57.70
2018-11-05T15:54:17.518Z,58.30
2018-11-05T15:56:48.436Z,58.80
2018-11-05T15:59:20.345Z,59.20
2018-11-05T16:01:51.455Z,60.10
2018-11-05T16:04:22.571Z,59.90
2018-11-05T16:06:53.588Z,60.00
2018-11-05T16:09:24.608Z,60.60
2018-11-05T16:11:55.585Z,60.70
2018-11-05T16:14:26.808Z,61.40
2018-11-05T16:16:57.968Z,61.40
2018-11-05T16:19:29.108Z,62.30
2018-11-05T16:22:00.483Z,62.80
2018-11-05T16:24:31.965Z,62.60
2018-11-05T16:27:03.201Z,62.80
2018-11-05T16:29:40.794Z,63.10
2018-11-05T16:32:11.929Z,63.70
2018-11-05T16:34:43.204Z,64.40
2018-11-05T16:37:14.175Z,64.90
2018-11-05T16:39:45.172Z,65.30
2018-11-05T16:42:16.219Z,65.30
2018-11-05T16:44:47.134Z,65.50
2018-11-05T16:47:18.204Z,66.70
2018-11-05T16:49:49.214Z,66.70
2018-11-05T16:52:20.173Z,66.90
2018-11-05T16:54:57.190Z,66.90
2018-11-05T16:57:28.186Z,67.90
2018-11-05T16:59:59.402Z,67.40
2018-11-05T17:02:30.714Z,66.40
2018-11-05T17:05:01.470Z,67.90
2018-11-05T17:07:32.301Z,67.50
2018-11-05T17:10:03.328Z,68.50
2018-11-05T17:12:34.254Z,69.70
2018-11-05T17:15:06.532Z,69.00
2018-11-05T17:17:37.907Z,70.30
2018-11-05T17:20:12.360Z,69.50
2018-11-05T17:22:43.867Z,69.70
2018-11-05T17:25:15.427Z,70.00
2018-11-05T17:27:47.484Z,71.40
2018-11-05T17:30:21.514Z,70.30
2018-11-05T17:32:52.666Z,70.10
2018-11-05T17:35:24.091Z,70.30
2018-11-05T17:37:56.035Z,70.80
2018-11-05T17:40:27.286Z,71.80
2018-11-05T17:42:58.530Z,72.70
2018-11-05T17:45:29.616Z,71.30
2018-11-05T17:48:01.588Z,71.60
2018-11-05T17:50:32.584Z,71.80
2018-11-05T17:53:03.792Z,72.00
2018-11-05T17:55:34.990Z,73.40
2018-11-05T17:58:06.180Z,72.30
2018-11-05T18:00:37.530Z,72.10
2018-11-05T18:03:08.682Z,71.80
2018-11-05T18:05:39.683Z,72.10
2018-11-05T18:08:10.973Z,72.50
2018-11-05T18:10:42.202Z,72.10
2018-11-05T18:13:13.528Z,72.90
2018-11-05T18:15:44.735Z,71.60
2018-11-05T18:18:16.063Z,72.80
2018-11-05T18:20:47.411Z,72.30
2018-11-05T18:23:18.739Z,72.80
2018-11-05T18:25:50.930Z,72.40
2018-11-05T18:28:22.080Z,73.60
2018-11-05T18:30:53.312Z,73.40
2018-11-05T18:33:24.585Z,74.20
2018-11-05T18:35:55.998Z,74.30
2018-11-05T18:38:27.289Z,74.30
2018-11-05T18:40:58.637Z,74.30
2018-11-05T18:43:29.776Z,74.80
2018-11-05T18:46:00.922Z,74.90
2018-11-05T18:48:32.119Z,75.30
2018-11-05T18:51:04.524Z,75.40
2018-11-05T18:53:36.125Z,75.40
2018-11-05T18:56:07.814Z,76.30
2018-11-05T18:58:39.110Z,76.80
2018-11-05T19:01:11.009Z,76.30
2018-11-05T19:03:42.683Z,76.20
2018-11-05T19:06:13.581Z,77.00
2018-11-05T19:08:44.916Z,77.50
2018-11-05T19:11:16.060Z,78.20
2018-11-05T19:13:47.212Z,78.60
2018-11-05T19:16:18.429Z,78.50
2018-11-05T19:18:49.683Z,78.90
2018-11-05T19:21:20.769Z,79.60
2018-11-05T19:23:52.104Z,79.40
2018-11-05T19:26:23.228Z,79.50
2018-11-05T19:28:54.598Z,79.50
2018-11-05T19:31:26.419Z,79.00
2018-11-05T19:33:57.858Z,79.70
2018-11-05T19:36:29.763Z,80.00
2018-11-05T19:39:00.969Z,79.50
2018-11-05T19:41:32.244Z,79.30
2018-11-05T19:44:03.290Z,80.30
2018-11-05T19:46:34.626Z,80.40
2018-11-05T19:49:06.094Z,80.30
2018-11-05T19:51:37.594Z,80.70
2018-11-05T19:54:08.933Z,81.30
2018-11-05T19:56:40.350Z,82.00
2018-11-05T19:59:11.482Z,82.00
2018-11-05T20:01:42.853Z,82.30
2018-11-05T20:04:14.008Z,82.90
2018-11-05T20:06:45.286Z,83.70
2018-11-05T20:09:16.791Z,83.60
2018-11-05T20:11:48.080Z,83.80
2018-11-05T20:14:19.363Z,84.10
2018-11-05T20:16:50.792Z,84.00
2018-11-05T20:19:22.445Z,83.90
2018-11-05T20:21:53.662Z,84.00
2018-11-05T20:24:25.197Z,84.50
2018-11-05T20:26:56.339Z,84.80
2018-11-05T20:29:27.694Z,85.30
2018-11-05T20:31:59.455Z,85.30
2018-11-05T20:34:30.674Z,86.10
2018-11-05T20:37:01.969Z,86.30
2018-11-05T20:39:34.706Z,84.90
2018-11-05T20:42:06.584Z,84.10
2018-11-05T20:44:37.469Z,84.10
2018-11-05T20:47:08.913Z,84.40
2018-11-05T20:49:40.294Z,86.00
2018-11-05T20:52:11.385Z,87.60
2018-11-05T20:54:42.795Z,87.20
2018-11-05T20:57:16.772Z,86.10
2018-11-05T20:59:48.245Z,86.20
2018-11-05T21:02:20.158Z,86.40
2018-11-05T21:04:51.521Z,86.80
2018-11-05T21:07:23.215Z,87.00
2018-11-05T21:09:54.714Z,87.10
2018-11-05T21:12:26.238Z,87.10
2018-11-05T21:14:57.372Z,86.50
2018-11-05T21:17:28.739Z,86.60
2018-11-05T21:20:00.393Z,87.00
2018-11-05T21:22:31.718Z,86.40
2018-11-05T21:25:02.651Z,86.40
2018-11-05T21:27:33.588Z,87.40
2018-11-05T21:30:04.902Z,85.80
2018-11-05T21:32:36.262Z,86.20
2018-11-05T21:35:10.078Z,85.50
2018-11-05T21:37:41.739Z,86.30
2018-11-05T21:40:14.266Z,87.70
2018-11-05T21:42:45.265Z,86.60
2018-11-05T21:45:16.914Z,87.70
2018-11-05T21:47:48.261Z,87.00
2018-11-05T21:50:20.812Z,86.10
2018-11-05T21:52:52.392Z,85.70
2018-11-05T21:55:23.831Z,85.30
2018-11-05T21:57:55.255Z,85.20
2018-11-05T22:00:26.725Z,85.40
2018-11-05T22:02:59.640Z,85.90
2018-11-05T22:05:31.268Z,88.10
2018-11-05T22:08:02.643Z,88.50
2018-11-05T22:10:34.252Z,88.60
2018-11-05T22:13:05.816Z,89.90
2018-11-05T22:15:42.554Z,90.30
2018-11-05T22:18:14.729Z,90.50
2018-11-05T22:20:45.783Z,90.30
2018-11-05T22:23:17.267Z,90.50
2018-11-05T22:25:48.353Z,89.30
2018-11-05T22:28:20.006Z,89.00
2018-11-05T22:30:51.546Z,88.20
2018-11-05T22:33:23.033Z,87.10
2018-11-05T22:35:54.566Z,87.30
2018-11-05T22:38:25.860Z,87.70
2018-11-05T22:40:56.895Z,88.70
2018-11-05T22:43:28.037Z,88.10
2018-11-05T22:45:59.143Z,88.70
2018-11-05T22:48:30.061Z,89.10
2018-11-05T22:51:01.246Z,90.00
2018-11-05T22:53:32.743Z,90.40
2018-11-05T22:56:04.215Z,90.00
2018-11-05T22:58:36.009Z,89.70
2018-11-05T23:01:08.679Z,89.60
2018-11-05T23:03:39.557Z,89.00
2018-11-05T23:06:10.589Z,89.10
2018-11-05T23:08:41.513Z,89.50
2018-11-05T23:11:12.583Z,90.00
2018-11-05T23:13:43.568Z,90.10
2018-11-05T23:16:14.599Z,90.00
2018-11-05T23:18:45.716Z,90.00
2018-11-05T23:21:16.757Z,89.20
2018-11-05T23:23:47.853Z,89.00
2018-11-05T23:26:18.783Z,89.10
2018-11-05T23:28:49.851Z,88.70
2018-11-05T23:31:21.284Z,88.90
2018-11-05T23:33:52.502Z,88.90
2018-11-05T23:36:23.598Z,88.30
2018-11-05T23:38:54.633Z,88.50
2018-11-05T23:41:25.705Z,88.10
2018-11-05T23:43:56.761Z,88.40
2018-11-05T23:46:27.893Z,88.30
2018-11-05T23:48:58.895Z,88.10
2018-11-05T23:51:29.925Z,88.70
2018-11-05T23:54:00.840Z,89.40
2018-11-05T23:56:32.227Z,89.80
2018-11-05T23:59:03.246Z,90.30
